createdAt,value
2019-04-16T00:01:29.284Z,18.17
2019-04-16T00:04:22.274Z,18.30
2019-04-16T00:07:06.862Z,18.10
2019-04-16T00:09:57.304Z,18.55
2019-04-16T00:12:32.453Z,17.85
2019-04-16T00:15:09.330Z,18.92
2019-04-16T00:17:44.401Z,18.12
2019-04-16T00:20:18.050Z,17.17
2019-04-16T00:23:08.647Z,18.40
2019-04-16T00:25:41.072Z,18.95
2019-04-16T00:28:14.630Z,19.10
2019-04-16T00:30:47.364Z,18.87
2019-04-16T00:33:19.842Z,19.65
2019-04-16T00:35:52.418Z,19.82
2019-04-16T00:38:24.738Z,20.83
2019-04-16T00:41:01.334Z,20.30
2019-04-16T00:43:33.406Z,20.00
2019-04-16T00:46:08.290Z,19.52
2019-04-16T00:48:40.307Z,18.77
2019-04-16T00:51:12.375Z,19.30
2019-04-16T00:53:44.558Z,20.52
2019-04-16T00:56:17.298Z,20.27
2019-04-16T00:58:52.033Z,20.30
2019-04-16T01:01:23.771Z,20.37
2019-04-16T01:03:56.472Z,20.40
2019-04-16T01:06:28.829Z,19.37
2019-04-16T01:09:01.417Z,21.00
2019-04-16T01:11:35.739Z,19.62
2019-04-16T01:14:10.002Z,20.48
2019-04-16T01:16:42.383Z,20.55
2019-04-16T01:19:15.881Z,20.27
2019-04-16T01:21:48.347Z,21.27
2019-04-16T01:24:21.191Z,20.13
2019-04-16T01:26:55.363Z,18.37
2019-04-16T01:29:27.978Z,19.92
2019-04-16T01:32:02.291Z,20.17
2019-04-16T01:34:34.570Z,19.98
2019-04-16T01:37:14.698Z,19.82
2019-04-16T01:39:48.625Z,20.37
2019-04-16T01:42:23.517Z,18.92
2019-04-16T01:44:59.402Z,20.30
2019-04-16T01:47:29.391Z,19.42
2019-04-16T01:50:01.877Z,20.20
2019-04-16T01:52:34.382Z,19.98
2019-04-16T01:55:08.380Z,19.50
2019-04-16T01:57:40.718Z,20.88
2019-04-16T02:00:13.517Z,19.20
2019-04-16T02:02:47.005Z,19.25
2019-04-16T02:05:20.364Z,19.62
2019-04-16T02:07:56.369Z,20.10
2019-04-16T02:10:28.461Z,20.00
2019-04-16T02:13:00.835Z,19.55
2019-04-16T02:15:33.325Z,20.62
2019-04-16T02:18:05.670Z,20.67
2019-04-16T02:20:40.304Z,19.05
2019-04-16T02:23:13.573Z,20.60
2019-04-16T02:25:48.458Z,20.15
2019-04-16T02:28:21.858Z,20.03
2019-04-16T02:30:54.689Z,21.00
2019-04-16T02:33:30.665Z,21.57
2019-04-16T02:36:06.640Z,20.68
2019-04-16T02:38:46.281Z,21.80
2019-04-16T02:41:14.532Z,20.52
2019-04-16T02:43:47.290Z,20.35
2019-04-16T02:46:19.659Z,21.85
2019-04-16T02:50:39.291Z,20.95
2019-04-16T02:53:16.317Z,20.97
2019-04-16T02:55:54.460Z,21.17
2019-04-16T02:58:34.526Z,21.70
2019-04-16T03:04:04.321Z,20.80
2019-04-16T03:06:37.985Z,22.73
2019-04-16T03:09:10.708Z,22.20
2019-04-16T03:11:45.618Z,23.38
2019-04-16T03:14:17.704Z,23.20
2019-04-16T03:17:10.203Z,22.00
2019-04-16T03:19:44.302Z,21.77
2019-04-16T03:22:16.665Z,21.93
2019-04-16T03:24:49.166Z,21.33
2019-04-16T03:27:22.864Z,22.67
2019-04-16T03:29:55.418Z,22.55
2019-04-16T03:32:33.582Z,21.33
2019-04-16T03:35:02.160Z,21.80
2019-04-16T03:37:34.673Z,21.75
2019-04-16T03:40:16.177Z,23.85
2019-04-16T03:42:42.766Z,24.27
2019-04-16T03:45:15.334Z,23.34
2019-04-16T03:47:50.857Z,22.45
2019-04-16T03:50:22.285Z,22.48
2019-04-16T03:52:55.270Z,22.90
2019-04-16T03:55:28.301Z,24.80
2019-04-16T03:58:05.442Z,23.57
2019-04-16T04:00:35.354Z,23.45
2019-04-16T04:03:07.622Z,23.70
2019-04-16T04:08:16.092Z,22.35
2019-04-16T04:10:46.773Z,22.50
2019-04-16T04:15:55.131Z,23.15
2019-04-16T04:18:27.748Z,24.18
2019-04-16T04:21:00.313Z,25.22
2019-04-16T04:23:32.601Z,24.35
2019-04-16T04:26:05.479Z,24.50
2019-04-16T04:31:32.022Z,24.82
2019-04-16T04:34:01.854Z,23.52
2019-04-16T04:36:35.442Z,23.57
2019-04-16T04:39:14.416Z,23.73
2019-04-16T04:41:43.574Z,22.90
2019-04-16T04:44:16.291Z,23.70
2019-04-16T04:46:48.655Z,22.82
2019-04-16T04:49:21.288Z,21.62
2019-04-16T04:51:53.785Z,20.77
2019-04-16T04:54:26.414Z,21.47
2019-04-16T04:56:59.929Z,21.68
2019-04-16T04:59:36.485Z,20.97
2019-04-16T05:02:06.768Z,21.25
2019-04-16T05:04:43.896Z,22.30
2019-04-16T05:07:17.887Z,21.26
2019-04-16T05:09:50.645Z,20.67
2019-04-16T05:12:23.294Z,23.10
2019-04-16T05:14:58.468Z,21.97
2019-04-16T05:17:31.039Z,21.57
2019-04-16T05:22:21.537Z,21.17
2019-04-16T05:24:54.328Z,21.70
2019-04-16T05:27:29.452Z,21.75
2019-04-16T05:30:02.288Z,23.12
2019-04-16T05:32:34.769Z,20.92
2019-04-16T05:35:10.404Z,22.13
2019-04-16T05:37:43.454Z,23.42
2019-04-16T05:40:16.242Z,23.02
2019-04-16T05:42:48.755Z,23.17
2019-04-16T05:45:21.294Z,22.50
2019-04-16T05:47:53.819Z,23.23
2019-04-16T05:50:29.687Z,22.67
2019-04-16T05:53:01.144Z,22.42
2019-04-16T05:55:38.370Z,22.48
2019-04-16T05:58:11.842Z,23.36
2019-04-16T06:00:45.865Z,22.98
2019-04-16T06:03:21.877Z,21.02
2019-04-16T06:05:56.307Z,21.43
2019-04-16T06:08:28.793Z,22.37
2019-04-16T06:11:03.792Z,22.13
2019-04-16T06:13:53.349Z,24.35
2019-04-16T06:16:27.521Z,21.70
2019-04-16T06:19:04.420Z,22.90
2019-04-16T06:21:41.537Z,21.80
2019-04-16T06:24:17.367Z,21.97
2019-04-16T06:27:01.663Z,21.23
2019-04-16T06:29:39.807Z,22.52
2019-04-16T06:32:18.335Z,22.33
2019-04-16T06:34:57.751Z,23.00
2019-04-16T06:37:32.290Z,22.35
2019-04-16T06:40:24.276Z,22.52
2019-04-16T06:43:02.759Z,22.62
2019-04-16T06:45:37.978Z,22.32
2019-04-16T06:48:13.816Z,22.37
2019-04-16T06:50:51.053Z,23.00
2019-04-16T06:53:34.450Z,22.60
2019-04-16T06:56:09.590Z,21.30
2019-04-16T06:58:51.530Z,21.73
2019-04-16T07:01:28.719Z,22.22
2019-04-16T07:04:06.486Z,21.60
2019-04-16T07:06:46.672Z,21.30
2019-04-16T07:09:35.135Z,22.93
2019-04-16T07:12:02.829Z,21.02
2019-04-16T07:14:36.162Z,21.60
2019-04-16T07:17:10.447Z,20.12
2019-04-16T07:19:50.938Z,21.20
2019-04-16T07:22:24.430Z,20.80
2019-04-16T07:24:57.421Z,22.05
2019-04-16T07:27:36.124Z,21.23
2019-04-16T07:30:09.647Z,21.83
2019-04-16T07:32:46.957Z,19.40
2019-04-16T07:35:37.279Z,20.08
2019-04-16T07:38:24.888Z,19.67
2019-04-16T07:41:23.242Z,21.37
2019-04-16T07:44:08.080Z,19.95
2019-04-16T07:46:47.051Z,20.68
2019-04-16T07:49:27.295Z,19.48
2019-04-16T07:52:18.795Z,19.82
2019-04-16T07:54:54.435Z,19.17
2019-04-16T07:57:27.425Z,19.87
2019-04-16T08:00:00.298Z,19.95
2019-04-16T08:02:34.183Z,20.00
2019-04-16T08:05:10.004Z,19.35
2019-04-16T08:07:42.859Z,19.25
2019-04-16T08:10:16.989Z,19.15
2019-04-16T08:12:51.362Z,20.27
2019-04-16T08:15:24.066Z,19.40
2019-04-16T08:17:56.655Z,19.95
2019-04-16T08:20:29.320Z,19.82
2019-04-16T08:23:03.352Z,19.00
2019-04-16T08:25:35.907Z,19.60
2019-04-16T08:28:08.882Z,20.08
2019-04-16T08:30:43.049Z,19.73
2019-04-16T08:33:15.807Z,19.32
2019-04-16T08:35:48.535Z,20.50
2019-04-16T08:38:21.294Z,19.35
2019-04-16T08:40:54.320Z,19.04
2019-04-16T08:43:29.682Z,20.02
2019-04-16T08:46:00.814Z,20.92
2019-04-16T08:48:33.490Z,20.65
2019-04-16T08:51:06.434Z,20.17
2019-04-16T08:53:38.895Z,21.70
2019-04-16T08:56:11.338Z,19.80
2019-04-16T08:58:43.836Z,19.00
2019-04-16T09:03:51.675Z,20.13
2019-04-16T09:06:24.296Z,19.98
2019-04-16T09:11:40.338Z,20.27
2019-04-16T09:14:12.903Z,21.23
2019-04-16T09:19:21.554Z,19.65
2019-04-16T09:24:33.370Z,20.10
2019-04-16T09:27:28.669Z,20.48
2019-04-16T09:30:02.569Z,19.77
2019-04-16T09:32:39.047Z,19.50
2019-04-16T09:35:28.311Z,20.02
2019-04-16T09:40:50.039Z,19.40
2019-04-16T09:43:24.340Z,19.13
2019-04-16T09:46:09.624Z,19.12
2019-04-16T09:48:34.507Z,19.30
2019-04-16T09:51:06.501Z,20.38
2019-04-16T09:53:40.379Z,19.73
2019-04-16T09:56:30.138Z,18.63
2019-04-16T09:59:15.686Z,19.57
2019-04-16T10:01:47.788Z,18.73
2019-04-16T10:04:21.293Z,19.40
2019-04-16T10:06:53.847Z,19.10
2019-04-16T10:12:10.672Z,19.32
2019-04-16T10:14:43.324Z,19.02
2019-04-16T10:17:15.748Z,20.07
2019-04-16T10:19:49.420Z,19.92
2019-04-16T10:22:21.890Z,19.90
2019-04-16T10:25:09.482Z,19.00
2019-04-16T10:27:44.291Z,18.67
2019-04-16T10:30:20.296Z,18.23
2019-04-16T10:32:52.706Z,18.70
2019-04-16T10:35:25.786Z,19.75
2019-04-16T10:38:03.042Z,19.23
2019-04-16T10:40:38.281Z,18.90
2019-04-16T10:43:19.971Z,19.96
2019-04-16T10:46:00.671Z,19.03
2019-04-16T10:48:40.642Z,18.55
2019-04-16T10:51:15.508Z,19.02
2019-04-16T10:53:53.421Z,19.15
2019-04-16T10:56:33.540Z,17.77
2019-04-16T10:59:18.744Z,19.05
2019-04-16T11:01:52.802Z,18.90
2019-04-16T11:04:44.004Z,18.70
2019-04-16T11:07:25.785Z,17.77
2019-04-16T11:09:58.426Z,18.98
2019-04-16T11:12:31.269Z,17.25
2019-04-16T11:15:04.303Z,18.12
2019-04-16T11:20:00.020Z,17.45
2019-04-16T11:22:34.109Z,16.80
2019-04-16T11:25:08.474Z,15.48
2019-04-16T11:30:41.346Z,15.65
2019-04-16T11:35:42.899Z,16.97
2019-04-16T11:38:17.533Z,12.65
2019-04-16T11:40:49.901Z,11.48
2019-04-16T11:43:22.419Z,14.30
2019-04-16T11:45:55.307Z,12.03
2019-04-16T11:48:29.596Z,14.58
2019-04-16T11:51:03.620Z,14.63
2019-04-16T11:53:37.336Z,12.54
2019-04-16T11:56:10.045Z,13.48
2019-04-16T11:58:46.319Z,11.45
2019-04-16T12:01:33.338Z,12.60
2019-04-16T12:04:10.939Z,11.70
2019-04-16T12:07:05.159Z,13.05
2019-04-16T12:09:55.433Z,12.14
2019-04-16T12:12:46.357Z,11.80
2019-04-16T12:15:20.628Z,10.50
2019-04-16T12:18:11.334Z,11.90
2019-04-16T12:20:45.472Z,12.20
2019-04-16T12:23:17.754Z,10.90
2019-04-16T12:25:58.039Z,12.28
2019-04-16T12:28:32.395Z,10.38
2019-04-16T12:31:06.270Z,12.00
2019-04-16T12:33:42.413Z,11.15
2019-04-16T12:36:19.353Z,9.23
2019-04-16T12:39:09.792Z,9.90
2019-04-16T12:41:42.703Z,8.98
2019-04-16T12:44:44.417Z,8.73
2019-04-16T12:47:12.532Z,11.32
2019-04-16T12:50:05.919Z,10.00
2019-04-16T12:54:38.716Z,9.28
2019-04-16T12:57:15.020Z,8.55
2019-04-16T13:00:01.150Z,9.85
2019-04-16T13:02:41.855Z,10.68
2019-04-16T13:05:20.881Z,11.35
2019-04-16T13:07:58.613Z,12.23
2019-04-16T13:10:32.657Z,12.10
2019-04-16T13:13:24.972Z,12.23
2019-04-16T13:15:59.347Z,12.80
2019-04-16T13:18:33.471Z,13.03
2019-04-16T13:21:07.416Z,11.40
2019-04-16T13:23:41.491Z,12.20
2019-04-16T13:26:15.741Z,12.37
2019-04-16T13:28:48.335Z,11.43
2019-04-16T13:31:20.778Z,11.40
2019-04-16T13:36:27.822Z,11.60
2019-04-16T13:41:39.289Z,10.38
2019-04-16T13:44:18.576Z,12.58
2019-04-16T13:46:50.574Z,13.45
2019-04-16T13:49:24.522Z,11.90
2019-04-16T13:51:57.636Z,13.38
2019-04-16T13:54:47.645Z,12.78
2019-04-16T13:57:22.861Z,12.97
2019-04-16T14:00:15.399Z,12.15
2019-04-16T14:02:55.296Z,11.68
2019-04-16T14:05:28.654Z,13.10
2019-04-16T14:08:01.309Z,10.55
2019-04-16T14:10:33.834Z,11.45
2019-04-16T14:13:12.366Z,9.65
2019-04-16T14:15:44.614Z,10.82
2019-04-16T14:18:15.429Z,9.73
2019-04-16T14:20:47.874Z,8.35
2019-04-16T14:23:20.499Z,9.75
2019-04-16T14:25:53.049Z,9.73
2019-04-16T14:28:25.539Z,10.72
2019-04-16T14:30:57.899Z,11.63
2019-04-16T14:33:32.565Z,11.08
2019-04-16T14:36:06.414Z,10.03
2019-04-16T14:38:52.427Z,10.10
2019-04-16T14:41:26.363Z,9.03
2019-04-16T14:44:12.878Z,8.85
2019-04-16T14:46:49.051Z,8.15
2019-04-16T14:49:21.486Z,10.00
2019-04-16T14:51:54.289Z,10.78
2019-04-16T14:54:28.553Z,12.03
2019-04-16T14:57:02.572Z,12.20
2019-04-16T14:59:42.791Z,10.63
2019-04-16T15:02:30.530Z,11.28
2019-04-16T15:05:02.763Z,11.50
2019-04-16T15:07:49.376Z,13.20
2019-04-16T15:10:40.296Z,13.40
2019-04-16T15:13:12.553Z,10.02
2019-04-16T15:15:46.526Z,7.73
2019-04-16T15:18:20.514Z,7.83
2019-04-16T15:21:13.233Z,7.67
2019-04-16T15:23:47.578Z,8.23
2019-04-16T15:26:37.439Z,9.67
2019-04-16T15:29:11.452Z,9.20
2019-04-16T15:34:30.295Z,9.78
2019-04-16T15:37:13.729Z,9.38
2019-04-16T15:39:50.626Z,10.33
2019-04-16T15:42:40.588Z,11.00
2019-04-16T15:45:35.297Z,11.78
2019-04-16T15:49:58.035Z,14.50
2019-04-16T15:52:38.064Z,12.03
2019-04-16T15:55:27.733Z,12.40
2019-04-16T15:58:07.744Z,12.93
2019-04-16T16:00:44.298Z,14.18
2019-04-16T16:03:24.659Z,14.03
2019-04-16T16:06:11.480Z,13.17
2019-04-16T16:08:48.601Z,12.68
2019-04-16T16:11:28.846Z,12.15
2019-04-16T16:14:01.661Z,10.98
2019-04-16T16:16:42.006Z,11.12
2019-04-16T16:19:12.028Z,9.84
2019-04-16T16:21:43.421Z,9.74
2019-04-16T16:24:15.839Z,9.35
2019-04-16T16:26:48.419Z,9.60
2019-04-16T16:29:21.135Z,12.23
2019-04-16T16:31:53.761Z,11.55
2019-04-16T16:34:26.508Z,29.87
2019-04-16T16:36:59.302Z,13.08
2019-04-16T16:39:31.682Z,11.80
2019-04-16T16:42:04.290Z,12.93
2019-04-16T16:44:39.685Z,12.55
2019-04-16T16:47:14.282Z,12.85
2019-04-16T16:49:47.034Z,12.45
2019-04-16T16:52:21.346Z,11.45
2019-04-16T16:54:55.586Z,13.25
2019-04-16T16:57:30.585Z,11.95
2019-04-16T17:00:04.887Z,13.45
2019-04-16T17:02:49.311Z,12.55
2019-04-16T17:05:33.298Z,13.67
2019-04-16T17:08:05.974Z,14.33
2019-04-16T17:10:42.403Z,14.10
2019-04-16T17:13:16.965Z,13.80
2019-04-16T17:15:48.688Z,13.13
2019-04-16T17:18:21.293Z,13.50
2019-04-16T17:20:55.270Z,12.93
2019-04-16T17:23:27.856Z,13.48
2019-04-16T17:26:00.323Z,13.60
2019-04-16T17:28:32.978Z,13.62
2019-04-16T17:31:05.914Z,13.20
2019-04-16T17:33:40.073Z,12.18
2019-04-16T17:36:12.907Z,11.63
2019-04-16T17:38:45.452Z,12.30
2019-04-16T17:41:34.834Z,11.93
2019-04-16T17:44:09.302Z,12.05
2019-04-16T17:46:43.444Z,12.65
2019-04-16T17:52:02.458Z,11.80
2019-04-16T17:54:48.740Z,12.60
2019-04-16T17:57:32.361Z,13.30
2019-04-16T18:03:03.091Z,12.78
2019-04-16T18:05:36.627Z,13.43
2019-04-16T18:08:12.114Z,12.76
2019-04-16T18:10:44.338Z,13.58
2019-04-16T18:13:16.644Z,12.90
2019-04-16T18:15:51.908Z,13.00
2019-04-16T18:18:39.801Z,13.47
2019-04-16T18:21:22.799Z,14.95
2019-04-16T18:23:57.027Z,13.67
2019-04-16T18:26:47.844Z,13.35
2019-04-16T18:29:32.844Z,12.60
2019-04-16T18:32:05.483Z,13.58
2019-04-16T18:34:56.072Z,12.85
2019-04-16T18:37:30.300Z,13.53
2019-04-16T18:40:19.703Z,12.85
2019-04-16T18:42:59.919Z,10.08
2019-04-16T18:45:55.618Z,9.03
2019-04-16T18:48:28.311Z,10.17
2019-04-16T18:51:01.988Z,9.80
2019-04-16T18:53:34.467Z,10.43
2019-04-16T18:56:07.307Z,10.53
2019-04-16T18:58:41.841Z,9.92
2019-04-16T19:01:16.389Z,9.20
2019-04-16T19:03:48.986Z,9.65
2019-04-16T19:06:21.506Z,8.83
2019-04-16T19:08:54.461Z,8.18
2019-04-16T19:11:27.304Z,9.03
2019-04-16T19:14:00.313Z,9.20
2019-04-16T19:16:32.818Z,8.88
2019-04-16T19:19:05.504Z,9.53
2019-04-16T19:24:14.473Z,8.68
2019-04-16T19:26:46.879Z,9.25
2019-04-16T19:29:19.459Z,10.68
2019-04-16T19:31:54.982Z,12.57
2019-04-16T19:34:26.653Z,11.48
2019-04-16T19:37:00.830Z,11.65
2019-04-16T19:39:34.723Z,11.38
2019-04-16T19:42:11.090Z,11.12
2019-04-16T19:44:41.897Z,11.05
2019-04-16T19:47:14.342Z,12.07
2019-04-16T19:49:46.981Z,11.57
2019-04-16T19:54:51.332Z,11.55
2019-04-16T19:57:24.025Z,11.10
2019-04-16T20:02:33.041Z,11.57
2019-04-16T20:05:02.727Z,14.10
2019-04-16T20:07:35.870Z,13.22
2019-04-16T20:10:08.818Z,12.55
2019-04-16T20:12:41.395Z,12.30
2019-04-16T20:15:14.299Z,11.88
2019-04-16T20:17:46.984Z,11.38
2019-04-16T20:20:19.522Z,11.97
2019-04-16T20:22:52.284Z,11.85
2019-04-16T20:25:24.820Z,11.35
2019-04-16T20:27:57.353Z,12.60
2019-04-16T20:30:31.301Z,11.80
2019-04-16T20:33:04.402Z,12.03
2019-04-16T20:35:36.763Z,11.12
2019-04-16T20:38:09.317Z,11.88
2019-04-16T20:40:41.854Z,12.30
2019-04-16T20:43:14.550Z,11.93
2019-04-16T20:45:47.061Z,12.63
2019-04-16T20:48:21.304Z,13.60
2019-04-16T20:51:41.737Z,12.98
2019-04-16T20:54:18.712Z,12.43
2019-04-16T20:56:53.136Z,13.40
2019-04-16T20:59:31.422Z,12.97
2019-04-16T21:02:11.569Z,13.72
2019-04-16T21:04:46.145Z,13.07
2019-04-16T21:07:21.815Z,12.73
2019-04-16T21:10:15.613Z,13.10
2019-04-16T21:12:55.741Z,13.78
2019-04-16T21:15:35.669Z,13.40
2019-04-16T21:20:55.232Z,13.57
2019-04-16T21:23:34.725Z,12.63
2019-04-16T21:26:07.122Z,12.70
2019-04-16T21:28:58.588Z,12.60
2019-04-16T21:31:45.314Z,13.65
2019-04-16T21:34:29.892Z,13.40
2019-04-16T21:37:02.583Z,13.43
2019-04-16T21:39:36.824Z,13.70
2019-04-16T21:42:09.444Z,13.62
2019-04-16T21:44:44.659Z,13.17
2019-04-16T21:47:16.683Z,14.10
2019-04-16T21:49:49.317Z,13.58
2019-04-16T21:52:23.275Z,12.60
2019-04-16T21:54:56.365Z,12.73
2019-04-16T22:00:00.748Z,13.98
2019-04-16T22:02:37.924Z,14.53
2019-04-16T22:05:16.730Z,13.52
2019-04-16T22:07:49.442Z,13.08
2019-04-16T22:10:24.314Z,12.95
2019-04-16T22:13:00.795Z,13.13
2019-04-16T22:15:48.573Z,13.03
2019-04-16T22:18:23.807Z,12.27
2019-04-16T22:21:01.033Z,13.08
2019-04-16T22:23:35.490Z,13.58
2019-04-16T22:26:11.015Z,11.95
2019-04-16T22:28:45.518Z,13.38
2019-04-16T22:31:37.187Z,13.60
2019-04-16T22:34:06.735Z,12.40
2019-04-16T22:36:39.300Z,12.28
2019-04-16T22:39:22.852Z,12.95
2019-04-16T22:41:58.339Z,13.43
2019-04-16T22:44:46.355Z,13.15
2019-04-16T22:47:20.393Z,13.90
2019-04-16T22:49:55.137Z,14.10
2019-04-16T22:52:28.602Z,14.07
2019-04-16T22:55:01.342Z,14.40
2019-04-16T22:57:36.810Z,14.07
2019-04-16T23:00:12.975Z,14.40
2019-04-16T23:02:48.299Z,13.30
2019-04-16T23:05:21.513Z,14.70
2019-04-16T23:07:55.322Z,13.80
2019-04-16T23:10:27.729Z,14.75
2019-04-16T23:13:01.635Z,13.57
2019-04-16T23:15:35.404Z,13.90
2019-04-16T23:18:07.901Z,14.45
2019-04-16T23:20:42.008Z,14.47
2019-04-16T23:23:18.048Z,14.63
2019-04-16T23:25:49.170Z,13.33
2019-04-16T23:28:21.866Z,13.38
2019-04-16T23:30:57.562Z,13.08
2019-04-16T23:33:32.858Z,14.18
2019-04-16T23:36:06.482Z,13.38
2019-04-16T23:38:39.332Z,12.98
2019-04-16T23:41:16.658Z,14.66
2019-04-16T23:46:37.604Z,14.98
2019-04-16T23:49:30.962Z,13.78
2019-04-16T23:52:03.849Z,14.60
2019-04-16T23:54:40.765Z,14.95
2019-04-16T23:57:18.330Z,14.80
